sensor_id;sensor_type;location;lat;lon;timestamp;pressure;altitude;pressure_sealevel;temperature;humidity
5238;BME280;2639;49.700;7.962;2022-11-11T04:19:51;100356.94;;;2.45;100.00
5238;BME280;2639;49.700;7.962;2022-11-11T04:23:24;100348.22;;;2.43;100.00
5238;BME280;2639;49.700;7.962;2022-11-11T04:26:46;100345.41;;;2.47;100.00
5238;BME280;2639;49.700;7.962;2022-11-11T04:30:08;100343.97;;;2.49;100.00
5238;BME280;2639;49.700;7.962;2022-11-11T04:33:30;100348.16;;;2.48;100.00
5238;BME280;2639;49.700;7.962;2022-11-11T04:36:53;100348.84;;;2.47;100.00
5238;BME280;2639;49.700;7.962;2022-11-11T04:40:16;100340.22;;;2.40;100.00
5238;BME280;2639;49.700;7.962;2022-11-11T04:43:49;100347.41;;;2.37;100.00
5238;BME280;2639;49.700;7.962;2022-11-11T04:47:22;100352.38;;;2.29;100.00
5238;BME280;2639;49.700;7.962;2022-11-11T04:50:44;100357.84;;;2.20;100.00
5238;BME280;2639;49.700;7.962;2022-11-11T04:54:07;100353.28;;;2.17;100.00
5238;BME280;2639;49.700;7.962;2022-11-11T04:57:29;100355.03;;;2.24;100.00
5238;BME280;2639;49.700;7.962;2022-11-11T05:00:50;100357.06;;;2.26;100.00
5238;BME280;2639;49.700;7.962;2022-11-11T05:04:12;100357.16;;;2.34;100.00
5238;BME280;2639;49.700;7.962;2022-11-11T05:07:33;100357.97;;;2.40;100.00
5238;BME280;2639;49.700;7.962;2022-11-11T05:11:08;100357.97;;;2.40;100.00
5238;BME280;2639;49.700;7.962;2022-11-11T05:14:30;100359.00;;;2.35;100.00
5238;BME280;2639;49.700;7.962;2022-11-11T05:18:03;100354.50;;;2.26;100.00
5238;BME280;2639;49.700;7.962;2022-11-11T05:21:35;100355.31;;;2.20;100.00
5238;BME280;2639;49.700;7.962;2022-11-11T05:24:58;100360.59;;;2.21;100.00
5238;BME280;2639;49.700;7.962;2022-11-11T05:28:32;100354.50;;;2.26;100.00
5238;BME280;2639;49.700;7.962;2022-11-11T05:31:54;100358.56;;;2.31;100.00
5238;BME280;2639;49.700;7.962;2022-11-11T05:35:17;100359.69;;;2.34;100.00
5238;BME280;2639;49.700;7.962;2022-11-11T05:38:39;100365.25;;;2.31;100.00
5238;BME280;2639;49.700;7.962;2022-11-11T05:42:01;100357.78;;;2.25;100.00
5238;BME280;2639;49.700;7.962;2022-11-11T05:45:25;100360.38;;;2.20;100.00
5238;BME280;2639;49.700;7.962;2022-11-11T05:48:47;100370.34;;;2.18;100.00
5238;BME280;2639;49.700;7.962;2022-11-11T05:52:23;100371.75;;;2.16;100.00
5238;BME280;2639;49.700;7.962;2022-11-11T05:55:45;100368.50;;;2.17;100.00
5238;BME280;2639;49.700;7.962;2022-11-11T05:59:07;100371.13;;;2.24;100.00
5238;BME280;2639;49.700;7.962;2022-11-11T06:28:11;100389.84;;;1.94;100.00
5238;BME280;2639;49.700;7.962;2022-11-11T06:31:33;100388.44;;;1.96;100.00
5238;BME280;2639;49.700;7.962;2022-11-11T06:35:02;100388.94;;;1.93;100.00
5238;BME280;2639;49.700;7.962;2022-11-11T06:38:25;100396.94;;;1.96;100.00
5238;BME280;2639;49.700;7.962;2022-11-11T06:41:47;100403.75;;;2.03;100.00
5238;BME280;2639;49.700;7.962;2022-11-11T06:45:11;100410.63;;;2.04;100.00
5238;BME280;2639;49.700;7.962;2022-11-11T06:48:33;100407.41;;;2.05;100.00
5238;BME280;2639;49.700;7.962;2022-11-11T06:51:55;100408.91;;;2.10;100.00
5238;BME280;2639;49.700;7.962;2022-11-11T06:55:17;100419.16;;;2.17;100.00
5238;BME280;2639;49.700;7.962;2022-11-11T06:58:39;100432.34;;;2.27;100.00
5238;BME280;2639;49.700;7.962;2022-11-11T07:02:03;100432.66;;;2.36;100.00
5238;BME280;2639;49.700;7.962;2022-11-11T07:05:25;100429.34;;;2.43;100.00
5238;BME280;2639;49.700;7.962;2022-11-11T07:08:47;100429.44;;;2.50;100.00
5238;BME280;2639;49.700;7.962;2022-11-11T07:12:09;100426.22;;;2.51;100.00
5238;BME280;2639;49.700;7.962;2022-11-11T07:15:31;100419.53;;;2.51;100.00
5238;BME280;2639;49.700;7.962;2022-11-11T07:18:55;100427.53;;;2.42;100.00
5238;BME280;2639;49.700;7.962;2022-11-11T07:22:17;100422.84;;;2.45;100.00
5238;BME280;2639;49.700;7.962;2022-11-11T07:25:38;100425.88;;;2.55;100.00
5238;BME280;2639;49.700;7.962;2022-11-11T07:29:00;100425.69;;;2.66;100.00
5238;BME280;2639;49.700;7.962;2022-11-11T07:32:23;100420.03;;;2.74;100.00
5238;BME280;2639;49.700;7.962;2022-11-11T07:35:46;100427.81;;;2.89;100.00
5238;BME280;2639;49.700;7.962;2022-11-11T07:39:08;100428.31;;;2.99;100.00
5238;BME280;2639;49.700;7.962;2022-11-11T07:42:30;100431.03;;;3.13;100.00
5238;BME280;2639;49.700;7.962;2022-11-11T07:45:52;100431.91;;;3.27;100.00
5238;BME280;2639;49.700;7.962;2022-11-11T07:49:14;100430.25;;;3.40;100.00
5238;BME280;2639;49.700;7.962;2022-11-11T07:52:38;100426.75;;;3.52;100.00
5238;BME280;2639;49.700;7.962;2022-11-11T07:56:01;100433.53;;;3.59;100.00
5238;BME280;2639;49.700;7.962;2022-11-11T07:59:24;100429.25;;;3.65;100.00
5238;BME280;2639;49.700;7.962;2022-11-11T08:02:46;100433.88;;;3.75;100.00
5238;BME280;2639;49.700;7.962;2022-11-11T08:06:08;100432.06;;;3.94;100.00
5238;BME280;2639;49.700;7.962;2022-11-11T08:09:31;100427.69;;;4.13;100.00
5238;BME280;2639;49.700;7.962;2022-11-11T08:12:53;100429.69;;;4.35;100.00
5238;BME280;2639;49.700;7.962;2022-11-11T08:16:26;100435.63;;;4.56;100.00
5238;BME280;2639;49.700;7.962;2022-11-11T08:19:48;100433.63;;;4.80;100.00
5238;BME280;2639;49.700;7.962;2022-11-11T08:23:10;100440.63;;;5.03;100.00
5238;BME280;2639;49.700;7.962;2022-11-11T08:26:55;100439.97;;;5.18;100.00
5238;BME280;2639;49.700;7.962;2022-11-11T08:30:17;100437.84;;;5.36;100.00
5238;BME280;2639;49.700;7.962;2022-11-11T08:33:39;100440.47;;;5.50;100.00
5238;BME280;2639;49.700;7.962;2022-11-11T09:37:21;100464.56;;;7.47;100.00
5238;BME280;2639;49.700;7.962;2022-11-11T09:40:58;100460.50;;;7.87;100.00
5238;BME280;2639;49.700;7.962;2022-11-11T09:44:39;100454.63;;;8.41;100.00
5238;BME280;2639;49.700;7.962;2022-11-11T09:48:12;100448.69;;;9.04;100.00
5238;BME280;2639;49.700;7.962;2022-11-11T09:51:42;100443.59;;;9.44;98.53
5238;BME280;2639;49.700;7.962;2022-11-11T09:55:15;100433.13;;;9.99;95.68
5238;BME280;2639;49.700;7.962;2022-11-11T09:58:41;100419.78;;;10.44;93.38
5238;BME280;2639;49.700;7.962;2022-11-11T10:02:16;100422.13;;;10.76;90.66
5238;BME280;2639;49.700;7.962;2022-11-11T10:05:42;100417.50;;;11.06;89.38
5238;BME280;2639;49.700;7.962;2022-11-11T10:09:07;100396.47;;;11.45;87.13
5238;BME280;2639;49.700;7.962;2022-11-11T10:12:43;100397.47;;;11.82;86.28
5238;BME280;2639;49.700;7.962;2022-11-11T10:16:14;100390.13;;;12.13;85.75
5238;BME280;2639;49.700;7.962;2022-11-11T10:19:50;100392.25;;;12.17;84.99
5238;BME280;2639;49.700;7.962;2022-11-11T10:23:15;100388.25;;;12.29;84.57
5238;BME280;2639;49.700;7.962;2022-11-11T10:26:39;100394.03;;;12.54;83.76
5238;BME280;2639;49.700;7.962;2022-11-11T10:30:13;100387.78;;;12.61;82.64
5238;BME280;2639;49.700;7.962;2022-11-11T10:33:42;100386.75;;;12.78;82.39
5238;BME280;2639;49.700;7.962;2022-11-11T10:37:17;100380.56;;;12.95;81.78
5238;BME280;2639;49.700;7.962;2022-11-11T10:40:42;100371.66;;;13.10;81.13
5238;BME280;2639;49.700;7.962;2022-11-11T10:44:19;100374.50;;;13.13;80.27
5238;BME280;2639;49.700;7.962;2022-11-11T10:47:49;100379.25;;;12.90;82.39
5238;BME280;2639;49.700;7.962;2022-11-11T10:51:15;100379.03;;;12.97;82.33
5238;BME280;2639;49.700;7.962;2022-11-11T10:54:40;100373.19;;;13.08;82.78
5238;BME280;2639;49.700;7.962;2022-11-11T10:58:09;100358.03;;;13.11;81.50
5238;BME280;2639;49.700;7.962;2022-11-11T11:01:37;100363.03;;;12.91;81.99
5238;BME280;2639;49.700;7.962;2022-11-11T11:05:06;100368.97;;;12.62;84.12
5238;BME280;2639;49.700;7.962;2022-11-11T11:08:35;100374.94;;;12.25;86.45
5238;BME280;2639;49.700;7.962;2022-11-11T11:12:02;100364.16;;;11.92;89.37
5238;BME280;2639;49.700;7.962;2022-11-11T11:15:27;100358.81;;;11.99;90.13
5238;BME280;2639;49.700;7.962;2022-11-11T11:19:13;100360.06;;;11.94;90.71
5238;BME280;2639;49.700;7.962;2022-11-11T11:22:46;100354.19;;;11.78;91.47
5238;BME280;2639;49.700;7.962;2022-11-11T11:26:10;100359.13;;;11.49;93.72
5238;BME280;2639;49.700;7.962;2022-11-11T11:29:34;100356.38;;;11.30;94.94
5238;BME280;2639;49.700;7.962;2022-11-11T11:32:58;100367.59;;;11.13;96.61
5238;BME280;2639;49.700;7.962;2022-11-11T11:36:20;100367.91;;;11.07;98.71
5238;BME280;2639;49.700;7.962;2022-11-11T11:39:44;100365.03;;;11.04;99.98
5238;BME280;2639;49.700;7.962;2022-11-11T15:20:59;100393.72;;;9.25;100.00
5238;BME280;2639;49.700;7.962;2022-11-11T15:24:34;100387.91;;;9.19;100.00
5238;BME280;2639;49.700;7.962;2022-11-11T15:28:07;100390.34;;;9.17;100.00
5238;BME280;2639;49.700;7.962;2022-11-11T15:31:40;100386.31;;;9.03;100.00
5238;BME280;2639;49.700;7.962;2022-11-11T15:35:24;100386.78;;;8.92;100.00
5238;BME280;2639;49.700;7.962;2022-11-11T15:38:52;100382.84;;;8.87;100.00
5238;BME280;2639;49.700;7.962;2022-11-11T15:42:23;100386.03;;;8.93;100.00
5238;BME280;2639;49.700;7.962;2022-11-11T15:45:51;100374.16;;;8.94;100.00
5238;BME280;2639;49.700;7.962;2022-11-11T15:49:36;100379.44;;;8.95;100.00
5238;BME280;2639;49.700;7.962;2022-11-11T15:53:00;100374.75;;;8.91;100.00
5238;BME280;2639;49.700;7.962;2022-11-11T15:56:30;100378.31;;;8.84;100.00
5238;BME280;2639;49.700;7.962;2022-11-11T15:59:55;100367.28;;;8.70;100.00
5238;BME280;2639;49.700;7.962;2022-11-11T16:03:20;100365.91;;;8.64;100.00
5238;BME280;2639;49.700;7.962;2022-11-11T16:06:45;100371.84;;;8.56;100.00
5238;BME280;2639;49.700;7.962;2022-11-11T16:10:14;100382.13;;;8.49;100.00
5238;BME280;2639;49.700;7.962;2022-11-11T16:13:42;100379.03;;;8.52;100.00
5238;BME280;2639;49.700;7.962;2022-11-11T16:17:07;100372.34;;;8.45;100.00
5238;BME280;2639;49.700;7.962;2022-11-11T16:20:35;100378.97;;;8.36;100.00
5238;BME280;2639;49.700;7.962;2022-11-11T16:24:01;100378.75;;;8.18;100.00
5238;BME280;2639;49.700;7.962;2022-11-11T16:27:28;100379.56;;;8.10;100.00
5238;BME280;2639;49.700;7.962;2022-11-11T16:30:53;100383.59;;;8.08;100.00
5238;BME280;2639;49.700;7.962;2022-11-11T16:34:32;100391.94;;;8.14;100.00
5238;BME280;2639;49.700;7.962;2022-11-11T16:37:55;100387.75;;;8.15;100.00
5238;BME280;2639;49.700;7.962;2022-11-11T16:41:25;100398.56;;;8.12;100.00
5238;BME280;2639;49.700;7.962;2022-11-11T16:44:53;100398.56;;;8.12;100.00
5238;BME280;2639;49.700;7.962;2022-11-11T16:48:37;100401.22;;;7.98;100.00
5238;BME280;2639;49.700;7.962;2022-11-11T16:52:08;100394.47;;;7.98;100.00
5238;BME280;2639;49.700;7.962;2022-11-11T16:55:36;100397.69;;;8.05;100.00
5238;BME280;2639;49.700;7.962;2022-11-11T16:59:04;100395.00;;;7.96;100.00
5238;BME280;2639;49.700;7.962;2022-11-11T17:02:29;100387.50;;;7.97;100.00
5238;BME280;2639;49.700;7.962;2022-11-11T17:05:55;100399.06;;;7.94;100.00
5238;BME280;2639;49.700;7.962;2022-11-11T17:09:27;100395.50;;;7.85;100.00
5238;BME280;2639;49.700;7.962;2022-11-11T17:12:50;100394.41;;;7.83;100.00
5238;BME280;2639;49.700;7.962;2022-11-11T17:16:14;100408.31;;;7.77;100.00
5238;BME280;2639;49.700;7.962;2022-11-11T17:19:37;100398.47;;;7.73;100.00
5238;BME280;2639;49.700;7.962;2022-11-11T17:23:02;100395.03;;;7.73;100.00
5238;BME280;2639;49.700;7.962;2022-11-11T17:26:27;100404.31;;;7.72;100.00
5238;BME280;2639;49.700;7.962;2022-11-11T17:29:51;100394.16;;;7.65;100.00
5238;BME280;2639;49.700;7.962;2022-11-11T17:33:15;100404.03;;;7.62;100.00
5238;BME280;2639;49.700;7.962;2022-11-11T17:36:38;100400.38;;;7.60;100.00
5238;BME280;2639;49.700;7.962;2022-11-11T17:40:03;100402.75;;;7.58;100.00
5238;BME280;2639;49.700;7.962;2022-11-11T17:43:26;100400.56;;;7.62;100.00
5238;BME280;2639;49.700;7.962;2022-11-11T17:46:50;100396.03;;;7.59;100.00
5238;BME280;2639;49.700;7.962;2022-11-11T17:50:13;100395.00;;;7.50;100.00
5238;BME280;2639;49.700;7.962;2022-11-11T17:53:37;100390.44;;;7.47;100.00
5238;BME280;2639;49.700;7.962;2022-11-11T17:57:01;100388.47;;;7.37;100.00
5238;BME280;2639;49.700;7.962;2022-11-11T18:00:25;100382.88;;;7.26;100.00
5238;BME280;2639;49.700;7.962;2022-11-11T18:03:48;100390.00;;;7.21;100.00
5238;BME280;2639;49.700;7.962;2022-11-11T18:07:11;100395.84;;;7.27;100.00
5238;BME280;2639;49.700;7.962;2022-11-11T18:10:35;100391.78;;;7.36;100.00
5238;BME280;2639;49.700;7.962;2022-11-11T18:13:59;100394.75;;;7.25;100.00
5238;BME280;2639;49.700;7.962;2022-11-11T18:17:23;100397.31;;;7.25;100.00
5238;BME280;2639;49.700;7.962;2022-11-11T18:20:46;100400.97;;;7.20;100.00
5238;BME280;2639;49.700;7.962;2022-11-11T18:24:10;100408.66;;;7.20;100.00
5238;BME280;2639;49.700;7.962;2022-11-11T18:27:33;100413.38;;;7.17;100.00
5238;BME280;2639;49.700;7.962;2022-11-11T18:31:03;100411.78;;;7.10;100.00
5238;BME280;2639;49.700;7.962;2022-11-11T18:34:26;100420.31;;;7.18;100.00
5238;BME280;2639;49.700;7.962;2022-11-11T18:37:50;100415.97;;;7.10;100.00
5238;BME280;2639;49.700;7.962;2022-11-11T18:41:14;100418.94;;;7.06;100.00
5238;BME280;2639;49.700;7.962;2022-11-11T18:44:39;100420.56;;;6.98;100.00
5238;BME280;2639;49.700;7.962;2022-11-11T18:48:06;100423.72;;;6.81;100.00
5238;BME280;2639;49.700;7.962;2022-11-11T18:51:32;100435.75;;;6.89;100.00
5238;BME280;2639;49.700;7.962;2022-11-11T18:54:58;100421.91;;;6.87;100.00
5238;BME280;2639;49.700;7.962;2022-11-11T18:58:24;100428.97;;;6.97;100.00
5238;BME280;2639;49.700;7.962;2022-11-11T19:01:47;100422.56;;;7.01;100.00
5238;BME280;2639;49.700;7.962;2022-11-11T19:05:16;100429.84;;;7.05;100.00
5238;BME280;2639;49.700;7.962;2022-11-11T19:08:41;100437.00;;;7.00;100.00
5238;BME280;2639;49.700;7.962;2022-11-11T19:12:04;100433.75;;;6.94;100.00
5238;BME280;2639;49.700;7.962;2022-11-11T19:15:27;100435.19;;;6.92;100.00
5238;BME280;2639;49.700;7.962;2022-11-11T19:18:51;100435.38;;;6.86;100.00
5238;BME280;2639;49.700;7.962;2022-11-11T19:22:16;100437.56;;;6.90;100.00
5238;BME280;2639;49.700;7.962;2022-11-11T19:25:40;100432.78;;;7.01;100.00
5238;BME280;2639;49.700;7.962;2022-11-11T19:29:04;100438.97;;;7.03;100.00
5238;BME280;2639;49.700;7.962;2022-11-11T19:32:27;100439.53;;;7.00;100.00
5238;BME280;2639;49.700;7.962;2022-11-11T19:35:56;100436.84;;;6.84;100.00
5238;BME280;2639;49.700;7.962;2022-11-11T19:39:20;100434.28;;;6.84;100.00
5238;BME280;2639;49.700;7.962;2022-11-11T19:42:46;100436.84;;;6.84;100.00
5238;BME280;2639;49.700;7.962;2022-11-11T19:46:11;100441.94;;;6.84;100.00
5238;BME280;2639;49.700;7.962;2022-11-11T19:49:35;100440.88;;;6.89;100.00
5238;BME280;2639;49.700;7.962;2022-11-11T19:52:58;100452.59;;;6.73;100.00
5238;BME280;2639;49.700;7.962;2022-11-11T19:56:24;100459.16;;;6.71;100.00
5238;BME280;2639;49.700;7.962;2022-11-11T19:59:50;100458.38;;;6.79;100.00
5238;BME280;2639;49.700;7.962;2022-11-11T20:03:13;100457.31;;;6.70;100.00
5238;BME280;2639;49.700;7.962;2022-11-11T20:06:37;100457.69;;;6.73;100.00
5238;BME280;2639;49.700;7.962;2022-11-11T20:10:01;100459.69;;;6.68;100.00
5238;BME280;2639;49.700;7.962;2022-11-11T20:13:27;100460.22;;;6.66;100.00
5238;BME280;2639;49.700;7.962;2022-11-11T20:16:50;100452.97;;;6.62;100.00
5238;BME280;2639;49.700;7.962;2022-11-11T20:20:14;100450.00;;;6.66;100.00
5238;BME280;2639;49.700;7.962;2022-11-11T20:23:38;100452.75;;;6.67;100.00
5238;BME280;2639;49.700;7.962;2022-11-11T20:27:02;100455.88;;;6.58;100.00
5238;BME280;2639;49.700;7.962;2022-11-11T20:30:28;100453.69;;;6.53;100.00
5238;BME280;2639;49.700;7.962;2022-11-11T20:33:52;100456.06;;;6.38;100.00
5238;BME280;2639;49.700;7.962;2022-11-11T20:37:15;100453.16;;;6.42;100.00
5238;BME280;2639;49.700;7.962;2022-11-11T20:40:38;100455.53;;;6.55;100.00
5238;BME280;2639;49.700;7.962;2022-11-11T20:44:02;100457.13;;;6.54;100.00
5238;BME280;2639;49.700;7.962;2022-11-11T20:47:27;100461.69;;;6.49;100.00
5238;BME280;2639;49.700;7.962;2022-11-11T20:51:00;100459.00;;;6.48;100.00
5238;BME280;2639;49.700;7.962;2022-11-11T20:54:24;100458.81;;;6.39;100.00
5238;BME280;2639;49.700;7.962;2022-11-11T20:57:47;100457.69;;;6.44;100.00
5238;BME280;2639;49.700;7.962;2022-11-11T21:01:13;100454.25;;;6.44;100.00
5238;BME280;2639;49.700;7.962;2022-11-11T21:04:37;100461.16;;;6.38;100.00
5238;BME280;2639;49.700;7.962;2022-11-11T21:08:00;100457.31;;;6.13;100.00
5238;BME280;2639;49.700;7.962;2022-11-11T21:11:24;100455.50;;;6.11;100.00
5238;BME280;2639;49.700;7.962;2022-11-11T21:14:47;100452.63;;;6.16;100.00
5238;BME280;2639;49.700;7.962;2022-11-11T21:18:10;100458.81;;;6.18;100.00
5238;BME280;2639;49.700;7.962;2022-11-11T21:21:35;100444.06;;;6.15;100.00
5238;BME280;2639;49.700;7.962;2022-11-11T21:24:58;100448.22;;;6.07;100.00
5238;BME280;2639;49.700;7.962;2022-11-11T21:28:22;100452.59;;;6.01;100.00
5238;BME280;2639;49.700;7.962;2022-11-11T21:31:46;100454.41;;;6.02;100.00
5238;BME280;2639;49.700;7.962;2022-11-11T21:35:09;100448.97;;;6.06;100.00
5238;BME280;2639;49.700;7.962;2022-11-11T21:38:34;100450.97;;;6.09;100.00
5238;BME280;2639;49.700;7.962;2022-11-11T21:41:57;100442.78;;;6.11;100.00
5238;BME280;2639;49.700;7.962;2022-11-11T21:45:21;100440.94;;;6.03;100.00
5238;BME280;2639;49.700;7.962;2022-11-11T21:48:46;100454.41;;;6.02;100.00
5238;BME280;2639;49.700;7.962;2022-11-11T21:52:09;100453.31;;;6.00;100.00
5238;BME280;2639;49.700;7.962;2022-11-11T21:55:33;100458.06;;;5.97;100.00
5238;BME280;2639;49.700;7.962;2022-11-11T21:58:58;100457.25;;;5.84;100.00
5238;BME280;2639;49.700;7.962;2022-11-11T22:02:22;100447.94;;;5.70;100.00
5238;BME280;2639;49.700;7.962;2022-11-11T22:05:45;100455.03;;;5.58;100.00
5238;BME280;2639;49.700;7.962;2022-11-11T22:09:08;100456.41;;;5.35;100.00
5238;BME280;2639;49.700;7.962;2022-11-11T22:12:33;100454.19;;;5.31;100.00
5238;BME280;2639;49.700;7.962;2022-11-11T22:15:58;100449.22;;;5.11;100.00
5238;BME280;2639;49.700;7.962;2022-11-11T22:19:21;100452.66;;;5.04;100.00
5238;BME280;2639;49.700;7.962;2022-11-11T22:22:44;100459.56;;;5.12;100.00
5238;BME280;2639;49.700;7.962;2022-11-11T22:26:08;100454.16;;;5.16;100.00
5238;BME280;2639;49.700;7.962;2022-11-11T22:29:34;100458.88;;;5.13;100.00
5238;BME280;2639;49.700;7.962;2022-11-11T22:32:57;100454.78;;;5.01;100.00
5238;BME280;2639;49.700;7.962;2022-11-11T22:36:20;100463.13;;;4.93;100.00
5238;BME280;2639;49.700;7.962;2022-11-11T22:39:43;100460.13;;;4.82;100.00
5238;BME280;2639;49.700;7.962;2022-11-11T22:43:07;100459.34;;;4.69;100.00
